Time;durP1;ratioP1;P1;durP2;ratioP2;P2;SDS_P1;SDS_P2;PMS_P1;PMS_P2;Temp;Humidity;BMP_temperature;BMP_pressure;BME280_temperature;BME280_humidity;BME280_pressure;Samples;Min_cycle;Max_cycle;Signal;HPM_P1;HPM_P2
2021/03/23 00:01:37;;;;;;;17.70;9.27;;;6.40;69.80;;;;;;5068694;28;20025;-66
2021/03/23 00:04:03;;;;;;;17.10;9.52;;;6.40;69.80;;;;;;5054228;28;20029;-67
2021/03/23 00:06:29;;;;;;;16.55;9.32;;;6.40;69.80;;;;;;5052734;28;20025;-67
2021/03/23 00:09:04;;;;;;;37.45;14.57;;;6.30;69.90;;;;;;5070591;28;20032;-67
2021/03/23 00:11:37;;;;;;;44.53;15.30;;;6.30;70.00;;;;;;5071847;28;20028;-67
2021/03/23 00:14:06;;;;;;;49.30;18.83;;;6.30;69.90;;;;;;5079170;28;20028;-68
2021/03/23 00:16:36;;;;;;;34.50;13.85;;;6.30;70.00;;;;;;5069659;28;20061;-67
2021/03/23 00:19:03;;;;;;;33.10;13.43;;;6.20;70.10;;;;;;5084946;28;20090;-67
2021/03/23 00:21:30;;;;;;;30.13;12.55;;;6.20;70.10;;;;;;5074563;28;20035;-68
2021/03/23 00:23:57;;;;;;;21.40;10.43;;;6.20;70.20;;;;;;5071413;28;20078;-67
2021/03/23 00:26:23;;;;;;;22.42;10.80;;;6.20;70.30;;;;;;5069480;28;20115;-67
2021/03/23 00:28:52;;;;;;;27.38;12.45;;;6.20;70.30;;;;;;5073418;28;20028;-67
2021/03/23 00:31:21;;;;;;;27.08;12.02;;;6.10;70.40;;;;;;5077396;28;20036;-67
2021/03/23 00:33:46;;;;;;;21.75;10.50;;;6.10;70.40;;;;;;5079550;28;20029;-67
2021/03/23 00:36:17;;;;;;;20.40;10.32;;;6.10;70.60;;;;;;5068518;28;20067;-67
2021/03/23 00:38:42;;;;;;;17.58;9.20;;;6.10;70.80;;;;;;5068150;28;20077;-67
2021/03/23 00:41:09;;;;;;;21.35;9.10;;;6.10;70.80;;;;;;5069203;28;20025;-67
2021/03/23 00:43:38;;;;;;;20.98;9.25;;;6.10;70.80;;;;;;5063964;28;20029;-67
2021/03/23 00:46:04;;;;;;;20.30;9.70;;;6.10;70.80;;;;;;5091844;28;20412;-68
2021/03/23 00:48:30;;;;;;;24.27;11.15;;;6.10;70.80;;;;;;5071607;28;20032;-67
2021/03/23 00:50:56;;;;;;;21.27;10.20;;;6.10;70.80;;;;;;5071723;28;20115;-68
2021/03/23 00:53:21;;;;;;;19.02;9.93;;;6.10;70.90;;;;;;5072522;28;20036;-67
2021/03/23 00:55:47;;;;;;;21.65;10.10;;;6.10;70.90;;;;;;5070968;28;20032;-68
2021/03/23 00:58:12;;;;;;;18.13;9.48;;;6.10;70.80;;;;;;5070871;28;20020;-67
2021/03/23 01:00:38;;;;;;;22.77;11.02;;;6.10;70.90;;;;;;5071918;28;20052;-68
2021/03/23 01:03:04;;;;;;;23.77;11.13;;;6.00;70.90;;;;;;5070935;28;20032;-67
2021/03/23 01:05:32;;;;;;;20.40;10.75;;;6.00;70.90;;;;;;5070216;28;20513;-68
2021/03/23 01:07:58;;;;;;;21.33;10.63;;;6.00;71.10;;;;;;5063131;28;20431;-67
2021/03/23 01:10:26;;;;;;;20.45;10.20;;;5.90;71.10;;;;;;5065607;28;20028;-67
2021/03/23 01:12:51;;;;;;;22.05;10.70;;;5.90;71.30;;;;;;5072017;28;20032;-67
2021/03/23 01:15:21;;;;;;;23.13;11.07;;;5.90;71.30;;;;;;5076058;28;20025;-67
2021/03/23 01:17:47;;;;;;;23.02;10.27;;;5.90;71.40;;;;;;5071982;28;20093;-67
2021/03/23 01:20:15;;;;;;;21.08;10.05;;;5.90;71.40;;;;;;5068300;28;20033;-68
2021/03/23 01:22:41;;;;;;;23.67;10.90;;;5.90;71.50;;;;;;5056178;28;20020;-67
2021/03/23 01:25:08;;;;;;;20.17;9.90;;;5.90;71.60;;;;;;5069523;28;20023;-67
2021/03/23 01:27:33;;;;;;;18.40;10.25;;;5.90;71.60;;;;;;5070788;28;20024;-66
2021/03/23 01:29:59;;;;;;;24.42;10.80;;;5.90;71.60;;;;;;5078658;28;20048;-67
2021/03/23 01:32:25;;;;;;;20.92;10.15;;;5.90;71.60;;;;;;5071099;28;20054;-67
2021/03/23 01:34:51;;;;;;;24.52;11.27;;;6.00;71.60;;;;;;5070322;28;20055;-67
2021/03/23 01:37:17;;;;;;;21.17;10.45;;;6.00;71.50;;;;;;5070252;28;20028;-67
2021/03/23 01:39:43;;;;;;;22.40;11.18;;;6.00;71.50;;;;;;5062864;28;20055;-67
2021/03/23 01:42:12;;;;;;;21.73;10.73;;;6.00;71.60;;;;;;5070160;28;20036;-67
2021/03/23 01:44:43;;;;;;;19.42;9.80;;;6.00;71.60;;;;;;5083557;28;20046;-67
2021/03/23 01:47:09;;;;;;;25.35;11.35;;;6.00;71.70;;;;;;5072821;28;20029;-66
2021/03/23 01:49:38;;;;;;;23.02;11.32;;;6.00;71.50;;;;;;5070234;28;20115;-67
2021/03/23 01:52:09;;;;;;;25.23;11.68;;;6.00;71.50;;;;;;5051671;28;20082;-67
2021/03/23 01:54:54;;;;;;;24.90;11.40;;;6.00;71.70;;;;;;5054871;28;20056;-67
2021/03/23 01:57:19;;;;;;;22.30;11.30;;;6.00;71.90;;;;;;5069892;28;20519;-67
2021/03/23 01:59:50;;;;;;;23.70;11.50;;;6.00;71.90;;;;;;5070119;28;20119;-67
2021/03/23 02:02:16;;;;;;;24.08;10.07;;;6.10;72.00;;;;;;5070180;28;20474;-67
2021/03/23 02:04:41;;;;;;;23.90;11.20;;;6.10;71.90;;;;;;5069652;28;20047;-67
2021/03/23 02:07:07;;;;;;;23.08;11.35;;;6.10;71.80;;;;;;5070088;28;20540;-67
2021/03/23 02:09:36;;;;;;;23.00;11.57;;;6.20;71.80;;;;;;5069915;28;20059;-66
2021/03/23 02:12:17;;;;;;;22.58;10.88;;;6.20;71.70;;;;;;5073527;28;20031;-67
2021/03/23 02:14:45;;;;;;;22.45;11.73;;;6.20;71.80;;;;;;5078140;28;20048;-67
2021/03/23 02:17:19;;;;;;;23.65;11.68;;;6.20;71.80;;;;;;5070364;28;20483;-67
2021/03/23 02:19:45;;;;;;;28.80;12.65;;;6.20;71.80;;;;;;5069774;28;20021;-67
2021/03/23 02:22:32;;;;;;;23.88;11.77;;;6.20;71.60;;;;;;5062971;28;20020;-67
2021/03/23 02:24:58;;;;;;;25.35;11.90;;;6.10;71.60;;;;;;5067934;28;20021;-67
2021/03/23 02:27:26;;;;;;;22.35;12.02;;;6.10;71.60;;;;;;5068945;28;20549;-67
2021/03/23 02:29:53;;;;;;;22.63;11.55;;;6.10;71.80;;;;;;5080836;28;20059;-67
2021/03/23 02:32:20;;;;;;;29.67;12.70;;;6.00;72.00;;;;;;5077661;28;20025;-67
2021/03/23 02:34:45;;;;;;;27.40;12.68;;;6.00;71.90;;;;;;5068292;28;20052;-67
2021/03/23 02:37:12;;;;;;;24.40;11.32;;;6.00;72.00;;;;;;5069547;28;20093;-66
2021/03/23 02:39:38;;;;;;;22.77;11.15;;;6.00;72.10;;;;;;5070239;28;20050;-67
2021/03/23 02:42:05;;;;;;;22.08;11.43;;;6.00;72.20;;;;;;5071577;28;20069;-65
2021/03/23 02:44:46;;;;;;;29.25;12.23;;;6.00;72.40;;;;;;5082842;28;20153;-66
2021/03/23 02:47:15;;;;;;;25.27;12.05;;;6.00;72.50;;;;;;5059188;28;20024;-67
2021/03/23 02:49:41;;;;;;;28.27;12.27;;;6.00;72.40;;;;;;5069577;28;20025;-65
2021/03/23 02:52:08;;;;;;;24.75;12.18;;;6.00;72.40;;;;;;5069626;28;20450;-65
2021/03/23 02:54:34;;;;;;;24.60;11.25;;;5.90;72.40;;;;;;5068905;28;20128;-65
2021/03/23 02:57:00;;;;;;;27.23;11.82;;;5.90;72.40;;;;;;5069969;28;20405;-66
2021/03/23 02:59:25;;;;;;;26.05;11.90;;;5.90;72.40;;;;;;5069663;28;20051;-65
2021/03/23 03:01:51;;;;;;;28.77;12.45;;;5.90;72.40;;;;;;5069874;28;20031;-65
2021/03/23 03:04:17;;;;;;;24.13;12.82;;;5.90;72.50;;;;;;5069566;28;20630;-66
2021/03/23 03:06:42;;;;;;;25.17;11.77;;;5.90;73.00;;;;;;5069626;28;20111;-66
2021/03/23 03:09:08;;;;;;;26.52;12.48;;;5.90;72.50;;;;;;5066892;28;20066;-66
2021/03/23 03:11:34;;;;;;;27.73;11.80;;;5.90;72.40;;;;;;5075334;28;20569;-67
2021/03/23 03:14:00;;;;;;;26.55;11.73;;;5.90;72.40;;;;;;5079268;28;20074;-66
2021/03/23 03:16:26;;;;;;;28.52;12.73;;;5.90;72.50;;;;;;5073803;28;20116;-66
2021/03/23 03:18:51;;;;;;;25.90;11.90;;;5.90;72.40;;;;;;5069359;28;20111;-65
2021/03/23 03:21:17;;;;;;;25.52;12.60;;;5.90;72.40;;;;;;5069514;28;20035;-66
2021/03/23 03:23:43;;;;;;;27.77;12.77;;;5.90;72.50;;;;;;5070270;28;20020;-66
2021/03/23 03:26:09;;;;;;;29.63;12.23;;;5.80;72.50;;;;;;5069696;28;20044;-66
2021/03/23 03:28:35;;;;;;;27.35;12.55;;;5.70;72.60;;;;;;5077302;28;20168;-67
2021/03/23 03:31:02;;;;;;;29.00;12.73;;;5.70;72.70;;;;;;5076311;28;20024;-66
2021/03/23 03:33:27;;;;;;;29.02;12.88;;;5.70;72.80;;;;;;5069110;28;20033;-66
2021/03/23 03:35:53;;;;;;;26.92;13.15;;;5.70;72.90;;;;;;5069337;28;20514;-66
2021/03/23 03:38:22;;;;;;;27.05;12.13;;;5.70;72.90;;;;;;5071667;28;20603;-65
2021/03/23 03:40:57;;;;;;;28.42;12.77;;;5.70;72.90;;;;;;5073423;28;20462;-67
2021/03/23 03:43:26;;;;;;;32.08;13.48;;;5.60;73.10;;;;;;5080408;28;20078;-66
2021/03/23 03:45:53;;;;;;;25.02;12.43;;;5.70;73.20;;;;;;5082128;28;20039;-66
2021/03/23 03:48:18;;;;;;;26.85;12.73;;;5.70;73.20;;;;;;5073162;28;20392;-66
2021/03/23 03:50:44;;;;;;;29.35;12.90;;;5.70;73.20;;;;;;5073415;28;20028;-66
2021/03/23 03:53:12;;;;;;;25.38;12.68;;;5.70;73.30;;;;;;5072974;28;20029;-67
2021/03/23 03:55:41;;;;;;;32.80;13.45;;;5.70;73.40;;;;;;5067832;28;20036;-66
2021/03/23 03:58:08;;;;;;;28.98;12.65;;;5.70;73.30;;;;;;5073093;28;20477;-67
2021/03/23 04:00:35;;;;;;;30.17;12.68;;;5.70;73.20;;;;;;5073245;28;20354;-67
2021/03/23 04:03:04;;;;;;;31.00;13.48;;;5.70;73.10;;;;;;5072868;28;20024;-67
2021/03/23 04:05:36;;;;;;;32.58;13.30;;;5.70;73.30;;;;;;5071834;28;20043;-65
2021/03/23 04:08:04;;;;;;;27.45;10.77;;;5.70;73.30;;;;;;5085618;22;20033;-67
2021/03/23 04:10:30;;;;;;;26.80;12.85;;;5.70;73.10;;;;;;5015173;28;20040;-67
2021/03/23 04:12:56;;;;;;;30.08;12.60;;;5.70;73.20;;;;;;5027524;28;20086;-67
2021/03/23 04:15:32;;;;;;;27.73;13.02;;;5.70;73.30;;;;;;5026413;28;20021;-67
2021/03/23 04:17:58;;;;;;;30.88;14.27;;;5.70;73.30;;;;;;5015418;28;20018;-67
2021/03/23 04:20:24;;;;;;;27.42;13.00;;;5.70;73.20;;;;;;5016364;28;20026;-67
2021/03/23 04:22:51;;;;;;;30.23;13.43;;;5.70;73.30;;;;;;5015755;28;20025;-67
2021/03/23 04:25:19;;;;;;;32.63;13.48;;;5.70;73.30;;;;;;5016033;28;20105;-67
2021/03/23 04:27:45;;;;;;;29.77;13.43;;;5.70;73.40;;;;;;5015876;28;20338;-67
2021/03/23 04:30:11;;;;;;;28.30;13.00;;;5.70;73.40;;;;;;5020860;28;20025;-67
2021/03/23 04:32:38;;;;;;;32.33;14.15;;;5.70;73.50;;;;;;5026739;28;20047;-67
2021/03/23 04:35:08;;;;;;;29.00;12.73;;;5.70;73.50;;;;;;5015344;28;20025;-67
2021/03/23 04:37:33;;;;;;;30.00;12.60;;;5.70;73.40;;;;;;5015566;28;20026;-67
2021/03/23 04:40:00;;;;;;;27.23;13.02;;;5.80;73.50;;;;;;5015965;28;20565;-67
2021/03/23 04:42:26;;;;;;;29.40;13.10;;;5.70;73.50;;;;;;5015664;28;20045;-67
2021/03/23 04:44:52;;;;;;;29.13;12.77;;;5.80;73.40;;;;;;5026247;28;20060;-67
2021/03/23 04:47:17;;;;;;;31.20;13.70;;;5.70;73.50;;;;;;5021879;28;20070;-67
2021/03/23 04:49:43;;;;;;;31.38;13.35;;;5.70;73.60;;;;;;5032908;28;20082;-67
2021/03/23 04:52:09;;;;;;;35.47;13.10;;;5.70;73.80;;;;;;5007959;28;20397;-67
2021/03/23 04:54:34;;;;;;;32.30;13.98;;;5.60;74.00;;;;;;5015247;28;20026;-67
2021/03/23 04:57:00;;;;;;;29.02;13.85;;;5.60;74.00;;;;;;5015168;28;20051;-67
2021/03/23 04:59:26;;;;;;;33.83;14.18;;;5.60;73.90;;;;;;5015669;28;20079;-67
2021/03/23 05:01:51;;;;;;;30.88;13.27;;;5.60;73.90;;;;;;5015541;28;20029;-67
2021/03/23 05:04:18;;;;;;;32.30;13.70;;;5.60;73.90;;;;;;5015233;28;20021;-67
2021/03/23 05:06:44;;;;;;;30.80;13.27;;;5.60;73.90;;;;;;5015120;28;20087;-67
2021/03/23 05:09:11;;;;;;;32.10;13.43;;;5.60;73.80;;;;;;5014845;28;20044;-67
2021/03/23 05:11:37;;;;;;;35.17;15.35;;;5.60;73.90;;;;;;5015188;28;20371;-67
2021/03/23 05:14:04;;;;;;;32.47;12.95;;;5.60;74.00;;;;;;5022895;28;20078;-67
2021/03/23 05:16:30;;;;;;;31.55;14.00;;;5.60;73.90;;;;;;5020565;28;20029;-67
2021/03/23 05:18:56;;;;;;;35.40;14.20;;;5.60;73.80;;;;;;5014737;28;20022;-67
2021/03/23 05:21:22;;;;;;;34.17;13.65;;;5.60;73.90;;;;;;5014325;28;20136;-67
2021/03/23 05:23:49;;;;;;;31.02;13.93;;;5.50;73.90;;;;;;5016126;28;20018;-67
2021/03/23 05:26:14;;;;;;;29.27;13.65;;;5.50;73.90;;;;;;5014392;28;20028;-68
2021/03/23 05:28:40;;;;;;;31.75;13.30;;;5.40;74.00;;;;;;5014724;28;20026;-67
2021/03/23 05:31:06;;;;;;;33.45;14.40;;;5.40;74.20;;;;;;5020038;28;20071;-67
2021/03/23 05:33:32;;;;;;;33.13;13.38;;;5.40;74.20;;;;;;5017981;28;20187;-67
2021/03/23 05:36:00;;;;;;;31.05;13.20;;;5.30;74.30;;;;;;5013984;28;20474;-67
2021/03/23 05:38:27;;;;;;;33.10;13.98;;;5.40;74.50;;;;;;5014747;28;20022;-67
2021/03/23 05:40:57;;;;;;;36.63;14.75;;;5.30;74.60;;;;;;5014437;28;20501;-67
2021/03/23 05:43:29;;;;;;;31.83;13.88;;;5.30;74.60;;;;;;5018449;28;20234;-67
2021/03/23 05:46:24;;;;;;;30.85;13.30;;;5.30;74.50;;;;;;5022390;28;20080;-67
2021/03/23 05:49:11;;;;;;;34.50;14.40;;;5.30;74.60;;;;;;5011573;28;20091;-67
2021/03/23 05:51:46;;;;;;;33.78;14.23;;;5.30;74.60;;;;;;5014353;28;20493;-67
2021/03/23 05:54:22;;;;;;;35.75;15.20;;;5.30;74.60;;;;;;5013909;28;20025;-67
2021/03/23 05:56:52;;;;;;;33.33;14.18;;;5.30;74.70;;;;;;5013755;28;20033;-67
2021/03/23 05:59:27;;;;;;;40.15;14.95;;;5.30;74.90;;;;;;5013842;28;20082;-67
2021/03/23 06:02:03;;;;;;;36.63;15.05;;;5.30;74.90;;;;;;5014030;28;20476;-67
2021/03/23 06:04:46;;;;;;;30.15;14.18;;;5.40;74.80;;;;;;5031754;28;20071;-67
2021/03/23 06:07:15;;;;;;;32.65;14.18;;;5.40;74.80;;;;;;5014028;28;20029;-67
2021/03/23 06:09:43;;;;;;;39.95;15.10;;;5.40;74.80;;;;;;5013899;28;20489;-67
2021/03/23 06:12:29;;;;;;;35.38;14.38;;;5.40;74.70;;;;;;5013869;28;20033;-68
2021/03/23 06:15:28;;;;;;;30.38;13.65;;;5.40;74.90;;;;;;5022094;28;20021;-67
2021/03/23 06:18:21;;;;;;;31.65;12.90;;;5.40;74.80;;;;;;5008452;28;20037;-68
2021/03/23 06:21:08;;;;;;;29.08;12.70;;;5.50;74.90;;;;;;5024307;28;20029;-67
2021/03/23 06:23:54;;;;;;;33.28;14.55;;;5.50;74.80;;;;;;5014502;28;20129;-67
2021/03/23 06:26:31;;;;;;;31.67;13.38;;;5.50;74.70;;;;;;5010094;28;20026;-67
2021/03/23 06:29:00;;;;;;;31.83;13.85;;;5.50;74.70;;;;;;5012689;28;20152;-67
2021/03/23 06:31:41;;;;;;;31.75;12.60;;;5.50;74.80;;;;;;5014117;28;20159;-67
2021/03/23 06:34:16;;;;;;;30.50;13.55;;;5.50;74.70;;;;;;5012972;28;20021;-67
2021/03/23 06:36:42;;;;;;;33.88;14.30;;;5.40;74.70;;;;;;5013952;28;20044;-67
2021/03/23 06:39:08;;;;;;;30.40;13.38;;;5.40;74.80;;;;;;5014679;28;20029;-67
2021/03/23 06:41:35;;;;;;;32.80;16.08;;;5.40;74.90;;;;;;5013653;28;20025;-68
2021/03/23 06:44:13;;;;;;;36.72;15.20;;;5.40;74.90;;;;;;5012705;28;20021;-68
2021/03/23 06:46:39;;;;;;;34.55;15.07;;;5.40;75.00;;;;;;5013883;28;20425;-68
2021/03/23 06:49:07;;;;;;;32.30;14.45;;;5.40;75.00;;;;;;5013674;28;20030;-68
2021/03/23 06:51:34;;;;;;;35.08;14.70;;;5.40;75.20;;;;;;5012976;28;20021;-68
2021/03/23 06:54:19;;;;;;;33.90;14.48;;;5.40;75.20;;;;;;5013085;28;20030;-68
2021/03/23 06:56:45;;;;;;;33.15;14.02;;;5.40;75.30;;;;;;5013506;28;20497;-68
2021/03/23 06:59:20;;;;;;;35.58;13.90;;;5.30;75.20;;;;;;5021808;28;20030;-68
2021/03/23 07:01:48;;;;;;;36.67;14.75;;;5.30;75.40;;;;;;5020202;28;20049;-68
2021/03/23 07:04:23;;;;;;;34.38;14.30;;;5.30;75.30;;;;;;5030870;28;20367;-69
2021/03/23 07:07:13;;;;;;;31.67;13.88;;;5.30;75.50;;;;;;5013926;28;20389;-68
2021/03/23 07:09:53;;;;;;;31.63;14.18;;;5.30;75.60;;;;;;5013691;28;20069;-68
2021/03/23 07:12:40;;;;;;;35.30;13.95;;;5.30;75.60;;;;;;5012984;28;20029;-68
2021/03/23 07:15:20;;;;;;;34.08;14.82;;;5.40;75.50;;;;;;5013039;28;20029;-69
2021/03/23 07:18:12;;;;;;;36.05;13.85;;;5.40;75.50;;;;;;5011240;28;20038;-68
2021/03/23 07:20:42;;;;;;;24.63;10.70;;;5.40;75.40;;;;;;5001731;28;20397;-68
2021/03/23 07:23:41;;;;;;;30.83;14.25;;;5.50;75.30;;;;;;5013531;28;20029;-68
2021/03/23 07:26:30;;;;;;;31.48;14.73;;;5.50;75.40;;;;;;5011929;28;20158;-68
2021/03/23 07:29:35;;;;;;;37.35;15.00;;;5.50;75.50;;;;;;5012805;28;20041;-68
2021/03/23 07:32:28;;;;;;;36.13;13.48;;;5.60;75.40;;;;;;5014651;28;20474;-68
2021/03/23 07:35:03;;;;;;;34.00;14.52;;;5.60;75.40;;;;;;5029330;28;20025;-68
2021/03/23 07:37:55;;;;;;;37.80;14.65;;;5.70;75.40;;;;;;5015897;28;20030;-68
2021/03/23 07:40:38;;;;;;;35.05;14.52;;;5.70;75.30;;;;;;5013194;28;20022;-68
2021/03/23 07:43:16;;;;;;;32.72;14.48;;;5.70;75.10;;;;;;5013526;28;20084;-68
2021/03/23 07:45:54;;;;;;;37.03;15.68;;;5.70;75.20;;;;;;5012517;28;20120;-68
2021/03/23 07:48:52;;;;;;;32.05;15.13;;;5.70;75.20;;;;;;5009718;28;20034;-67
2021/03/23 07:51:37;;;;;;;32.05;15.00;;;5.70;75.20;;;;;;5001053;28;20397;-67
2021/03/23 07:54:30;;;;;;;37.92;15.57;;;5.80;75.40;;;;;;5012964;28;20036;-68
2021/03/23 07:56:59;;;;;;;33.95;14.43;;;5.80;75.40;;;;;;5030353;28;20099;-67
2021/03/23 08:00:00;;;;;;;33.53;14.18;;;5.80;75.20;;;;;;5017451;28;20033;-67
2021/03/23 08:02:42;;;;;;;33.47;14.90;;;5.90;75.30;;;;;;5001083;28;20033;-67
2021/03/23 08:05:25;;;;;;;29.42;14.25;;;5.90;75.30;;;;;;5012240;28;20025;-67
2021/03/23 08:08:11;;;;;;;32.90;15.02;;;6.00;75.30;;;;;;5012703;28;20090;-68
2021/03/23 08:10:43;;;;;;;35.70;14.95;;;6.10;75.30;;;;;;5012894;28;20156;-67
2021/03/23 08:13:37;;;;;;;36.65;16.65;;;6.10;75.10;;;;;;5012964;28;20100;-67
2021/03/23 08:16:21;;;;;;;34.28;15.05;;;6.10;75.00;;;;;;5012058;28;20037;-67
2021/03/23 08:19:07;;;;;;;33.22;15.15;;;6.10;75.10;;;;;;5011061;28;20106;-67
2021/03/23 08:21:51;;;;;;;34.60;15.13;;;6.20;75.20;;;;;;5012334;28;20033;-68
2021/03/23 08:24:17;;;;;;;33.42;14.10;;;6.30;75.30;;;;;;5008068;28;20034;-67
2021/03/23 08:27:07;;;;;;;33.20;14.52;;;6.30;75.10;;;;;;5033512;28;20040;-68
2021/03/23 08:29:56;;;;;;;34.58;15.73;;;6.40;75.10;;;;;;5016183;28;20056;-68
2021/03/23 08:32:36;;;;;;;33.38;14.48;;;6.40;75.00;;;;;;5019178;28;20029;-68
2021/03/23 08:35:33;;;;;;;30.08;13.38;;;6.50;74.90;;;;;;5015465;28;20025;-68
2021/03/23 08:37:58;;;;;;;31.92;13.55;;;6.50;75.00;;;;;;5018312;28;20029;-68
2021/03/23 08:40:35;;;;;;;37.92;16.73;;;6.60;74.70;;;;;;5015475;28;20124;-68
2021/03/23 08:43:01;;;;;;;30.63;14.38;;;6.70;74.60;;;;;;5015637;28;20485;-68
2021/03/23 08:45:42;;;;;;;30.52;14.63;;;6.70;74.50;;;;;;5014961;28;20033;-68
2021/03/23 08:48:36;;;;;;;31.40;14.35;;;6.70;74.50;;;;;;5015616;28;20427;-68
2021/03/23 08:51:04;;;;;;;30.27;13.70;;;6.70;74.60;;;;;;5015372;28;20030;-68
2021/03/23 08:53:36;;;;;;;32.50;13.88;;;6.70;74.50;;;;;;5033397;28;20033;-68
2021/03/23 08:56:07;;;;;;;31.45;13.45;;;6.70;74.40;;;;;;5008741;28;20410;-68
2021/03/23 08:58:51;;;;;;;31.73;14.32;;;6.80;74.60;;;;;;5020465;28;20120;-68
2021/03/23 09:01:26;;;;;;;30.88;13.25;;;6.80;74.30;;;;;;5014551;28;20036;-67
2021/03/23 09:04:16;;;;;;;31.48;12.85;;;6.80;74.20;;;;;;5015077;28;20030;-67
2021/03/23 09:06:47;;;;;;;26.15;13.38;;;6.90;74.20;;;;;;5003424;28;20121;-68
2021/03/23 09:09:19;;;;;;;32.25;12.48;;;7.00;74.10;;;;;;5017726;28;20456;-68
2021/03/23 09:12:07;;;;;;;28.10;12.55;;;7.00;74.00;;;;;;5017985;28;20034;-68
2021/03/23 09:15:25;;;;;;;26.63;12.57;;;7.10;74.00;;;;;;5014119;28;20037;-67
2021/03/23 09:17:59;;;;;;;25.85;12.43;;;7.20;73.80;;;;;;4992316;28;20040;-67
2021/03/23 09:20:31;;;;;;;24.25;12.05;;;7.30;73.60;;;;;;5018346;28;20029;-66
2021/03/23 09:23:24;;;;;;;25.73;12.15;;;7.30;73.30;;;;;;5015189;28;20428;-67
2021/03/23 09:25:58;;;;;;;27.20;12.48;;;7.30;73.30;;;;;;5014159;28;20029;-67
2021/03/23 09:28:37;;;;;;;26.27;12.23;;;7.30;73.40;;;;;;5016112;28;20029;-67
2021/03/23 09:31:05;;;;;;;22.75;11.60;;;7.30;73.50;;;;;;5023277;28;20025;-67
2021/03/23 09:33:37;;;;;;;26.08;11.75;;;7.30;73.50;;;;;;5018219;28;20099;-67
2021/03/23 09:38:47;;;;;;;24.35;11.40;;;7.30;73.30;;;;;;5019394;28;20036;-67
2021/03/23 09:41:27;;;;;;;22.98;10.57;;;7.30;73.20;;;;;;5014778;28;20109;-67
2021/03/23 09:44:05;;;;;;;21.98;10.52;;;7.30;73.30;;;;;;5014821;28;20048;-67
2021/03/23 09:46:43;;;;;;;20.23;10.27;;;7.30;73.30;;;;;;5006464;28;20482;-68
2021/03/23 09:49:22;;;;;;;18.05;9.45;;;7.20;73.20;;;;;;5014614;28;20033;-67
2021/03/23 09:51:51;;;;;;;26.40;11.90;;;7.30;73.20;;;;;;5014733;28;20029;-67
2021/03/23 09:54:29;;;;;;;20.45;9.93;;;7.30;73.00;;;;;;5013890;28;20487;-67
2021/03/23 09:57:02;;;;;;;17.80;9.25;;;7.40;72.70;;;;;;5014321;28;20697;-68
2021/03/23 09:59:30;;;;;;;20.48;9.82;;;7.40;72.50;;;;;;5022624;28;20021;-68
2021/03/23 10:02:16;;;;;;;22.30;9.23;;;7.40;72.40;;;;;;5027862;28;20017;-67
2021/03/23 10:04:41;;;;;;;22.05;10.32;;;7.40;72.40;;;;;;5013119;28;20026;-67
2021/03/23 10:07:24;;;;;;;18.55;9.38;;;7.50;72.40;;;;;;5013946;28;20112;-67
2021/03/23 10:09:50;;;;;;;20.48;9.98;;;7.50;72.40;;;;;;5021245;28;20039;-68
2021/03/23 10:12:31;;;;;;;20.42;9.63;;;7.60;72.40;;;;;;5018370;28;20489;-68
2021/03/23 10:14:57;;;;;;;26.10;9.57;;;7.70;72.20;;;;;;5029469;28;20193;-69
2021/03/23 10:17:27;;;;;;;21.25;9.45;;;7.70;71.70;;;;;;5022352;28;20510;-67
2021/03/23 10:19:58;;;;;;;18.45;9.43;;;7.70;71.80;;;;;;5022015;28;20392;-68
2021/03/23 10:22:29;;;;;;;19.55;9.00;;;7.60;71.60;;;;;;5021281;28;20037;-66
2021/03/23 10:24:57;;;;;;;20.15;9.32;;;7.70;71.60;;;;;;5029597;28;20025;-67
2021/03/23 10:27:34;;;;;;;14.65;7.75;;;7.70;71.50;;;;;;5013671;28;20124;-66
2021/03/23 10:30:16;;;;;;;15.18;7.32;;;7.70;71.30;;;;;;5015433;28;20108;-68
2021/03/23 10:32:42;;;;;;;;;;;7.80;71.30;;;;;;5031183;28;20029;-68
2021/03/23 10:35:13;;;;;;;14.82;7.68;;;7.90;71.40;;;;;;5013125;28;20347;-66
2021/03/23 10:37:40;;;;;;;10.35;5.72;;;8.00;71.00;;;;;;5067873;23;20043;-66
2021/03/23 10:40:27;;;;;;;11.52;6.15;;;8.10;70.10;;;;;;5084164;28;20020;-66
2021/03/23 10:42:53;;;;;;;10.13;5.55;;;8.10;70.00;;;;;;5053501;28;20039;-65
2021/03/23 10:45:37;;;;;;;8.57;5.03;;;8.20;69.80;;;;;;5059946;28;20028;-66
2021/03/23 10:48:16;;;;;;;9.82;5.53;;;8.30;69.60;;;;;;5053305;28;20554;-66
2021/03/23 10:50:45;;;;;;;9.25;5.38;;;8.50;69.30;;;;;;5065620;28;20050;-65
2021/03/23 10:53:21;;;;;;;9.70;6.22;;;8.70;69.00;;;;;;5073277;28;20024;-66
2021/03/23 10:55:50;;;;;;;10.38;5.65;;;8.90;68.20;;;;;;5072771;28;20031;-67
2021/03/23 10:58:23;;;;;;;10.60;5.85;;;9.10;67.80;;;;;;5069319;28;20028;-67
2021/03/23 11:01:09;;;;;;;12.20;5.72;;;9.10;67.60;;;;;;5080703;28;20020;-66
2021/03/23 11:03:36;;;;;;;9.82;5.45;;;9.20;67.30;;;;;;5053226;28;20063;-65
2021/03/23 11:06:04;;;;;;;8.25;5.40;;;9.30;67.30;;;;;;5057104;28;20170;-66
2021/03/23 11:08:30;;;;;;;16.35;6.38;;;9.20;67.20;;;;;;5064396;28;20384;-65
2021/03/23 11:10:57;;;;;;;11.07;6.22;;;9.30;67.30;;;;;;5053970;28;20062;-65
2021/03/23 11:13:23;;;;;;;11.60;6.93;;;9.20;67.20;;;;;;5059907;28;20055;-65
2021/03/23 11:15:51;;;;;;;14.55;7.15;;;9.20;67.00;;;;;;5060469;28;20039;-65
2021/03/23 11:18:17;;;;;;;12.35;6.85;;;9.10;67.00;;;;;;5060689;28;20571;-66
2021/03/23 11:20:44;;;;;;;12.15;6.80;;;9.00;67.00;;;;;;5075194;28;20360;-65
2021/03/23 11:23:21;;;;;;;20.35;10.95;;;9.00;67.10;;;;;;5072345;28;20020;-65
2021/03/23 11:25:47;;;;;;;13.85;7.10;;;9.00;67.00;;;;;;5070550;28;20024;-67
2021/03/23 11:28:19;;;;;;;15.02;6.78;;;8.90;66.70;;;;;;5053130;28;20024;-66
2021/03/23 11:30:45;;;;;;;13.43;7.30;;;8.90;66.90;;;;;;5059739;28;20085;-66
2021/03/23 11:33:13;;;;;;;11.90;7.28;;;8.90;66.70;;;;;;5062788;28;20020;-66
2021/03/23 11:35:39;;;;;;;16.98;8.30;;;8.90;66.60;;;;;;5052232;28;20031;-66
2021/03/23 11:38:05;;;;;;;17.00;9.05;;;8.90;66.60;;;;;;5071856;28;20509;-66
2021/03/23 11:40:31;;;;;;;16.98;8.95;;;9.00;66.80;;;;;;5070920;28;20111;-66
2021/03/23 11:42:57;;;;;;;14.45;8.10;;;9.00;66.60;;;;;;5072934;28;20043;-65
2021/03/23 11:45:34;;;;;;;13.75;7.43;;;9.00;66.60;;;;;;5073195;28;20514;-65
2021/03/23 11:48:05;;;;;;;11.18;6.90;;;9.00;66.30;;;;;;5070244;28;20028;-66
2021/03/23 11:50:33;;;;;;;13.23;7.10;;;9.10;65.80;;;;;;5052838;28;20032;-66
2021/03/23 11:53:00;;;;;;;15.90;7.03;;;9.10;65.90;;;;;;5087048;28;20115;-65
2021/03/23 11:55:27;;;;;;;17.30;8.60;;;9.10;65.80;;;;;;5071700;28;20032;-66
2021/03/23 11:57:53;;;;;;;17.35;8.13;;;9.10;65.10;;;;;;5064463;28;20045;-65
2021/03/23 12:00:21;;;;;;;14.60;7.65;;;9.10;65.40;;;;;;5094455;28;20029;-65
2021/03/23 12:02:48;;;;;;;15.75;6.97;;;9.10;66.20;;;;;;5067960;28;20035;-65
2021/03/23 12:05:17;;;;;;;11.23;6.43;;;9.20;65.60;;;;;;5073385;28;20047;-66
2021/03/23 12:08:18;;;;;;;13.80;7.38;;;9.30;64.40;;;;;;5074195;28;20038;-65
2021/03/23 12:11:16;;;;;;;12.50;6.43;;;9.20;63.90;;;;;;5044762;28;20036;-66
2021/03/23 12:14:09;;;;;;;11.23;6.80;;;9.20;63.70;;;;;;5054184;28;20043;-65
2021/03/23 12:16:57;;;;;;;10.80;6.82;;;9.10;64.30;;;;;;5069880;28;20031;-65
2021/03/23 12:19:25;;;;;;;10.32;6.28;;;9.20;64.50;;;;;;5091015;28;20402;-66
2021/03/23 12:21:51;;;;;;;13.82;7.18;;;9.30;64.50;;;;;;5066989;28;20434;-65
2021/03/23 12:24:21;;;;;;;13.13;7.03;;;9.40;64.30;;;;;;5075663;28;20020;-65
2021/03/23 12:26:47;;;;;;;12.48;6.95;;;9.50;64.10;;;;;;5094305;28;20032;-66
2021/03/23 12:29:12;;;;;;;11.15;6.60;;;9.50;64.00;;;;;;5075568;28;20077;-66
2021/03/23 12:31:41;;;;;;;11.52;6.93;;;9.60;64.00;;;;;;5084390;28;20110;-65
2021/03/23 12:34:08;;;;;;;14.35;6.80;;;9.60;63.70;;;;;;5091033;28;20032;-66
2021/03/23 12:36:33;;;;;;;14.30;6.60;;;9.60;63.30;;;;;;5068959;28;20020;-65
2021/03/23 12:38:59;;;;;;;12.43;6.78;;;9.70;63.40;;;;;;5082054;28;20019;-66
2021/03/23 12:41:31;;;;;;;14.07;7.68;;;9.70;63.30;;;;;;5075565;28;20384;-66
2021/03/23 12:43:57;;;;;;;14.23;7.72;;;9.80;63.00;;;;;;5070541;28;20051;-66
2021/03/23 12:46:24;;;;;;;11.35;7.28;;;9.70;62.80;;;;;;5068455;28;20488;-66
2021/03/23 12:48:49;;;;;;;12.40;6.93;;;9.60;62.60;;;;;;5070793;28;20028;-66
2021/03/23 12:51:34;;;;;;;11.30;6.22;;;9.60;62.90;;;;;;5075354;28;20032;-66
2021/03/23 12:54:00;;;;;;;12.50;7.10;;;9.60;62.50;;;;;;5074839;28;20172;-66
2021/03/23 12:56:27;;;;;;;11.00;6.53;;;9.60;62.70;;;;;;5074998;28;20028;-66
2021/03/23 12:58:53;;;;;;;11.35;7.00;;;9.70;62.40;;;;;;5069752;28;20028;-64
2021/03/23 13:01:20;;;;;;;11.95;7.25;;;9.60;62.00;;;;;;5064407;28;20036;-65
2021/03/23 13:03:46;;;;;;;14.60;6.97;;;9.60;61.40;;;;;;5056765;28;20020;-66
2021/03/23 13:06:26;;;;;;;13.88;8.15;;;9.50;61.80;;;;;;5065889;28;20024;-66
2021/03/23 13:08:54;;;;;;;14.82;8.50;;;9.60;61.60;;;;;;5068347;28;20555;-65